createdAt,value
2019-06-10T00:00:30.843Z,12.55
2019-06-10T00:05:22.291Z,5.65
2019-06-10T00:10:16.402Z,5.53
2019-06-10T00:15:10.870Z,5.03
2019-06-10T00:20:05.470Z,5.22
2019-06-10T00:24:59.549Z,4.90
2019-06-10T00:29:52.425Z,5.17
2019-06-10T00:34:44.903Z,4.65
2019-06-10T00:39:37.282Z,5.12
2019-06-10T00:44:31.109Z,4.47
2019-06-10T00:49:23.574Z,4.60
2019-06-10T00:54:16.331Z,5.12
2019-06-10T00:59:10.343Z,4.80
2019-06-10T01:04:03.770Z,4.42
2019-06-10T01:08:57.171Z,5.20
2019-06-10T01:13:50.788Z,4.47
2019-06-10T01:18:43.320Z,4.37
2019-06-10T01:23:36.165Z,4.50
2019-06-10T01:28:31.178Z,4.60
2019-06-10T01:33:23.177Z,4.20
2019-06-10T01:38:16.358Z,4.35
2019-06-10T01:43:08.798Z,4.20
2019-06-10T01:48:01.558Z,4.92
2019-06-10T01:52:54.638Z,4.70
2019-06-10T01:57:47.309Z,4.17
2019-06-10T02:02:44.368Z,4.58
2019-06-10T02:07:34.204Z,4.50
2019-06-10T02:12:26.711Z,3.80
2019-06-10T02:17:23.564Z,4.37
2019-06-10T02:22:16.706Z,4.08
2019-06-10T02:27:07.854Z,3.80
2019-06-10T02:32:04.511Z,3.70
2019-06-10T02:36:54.679Z,3.60
2019-06-10T02:41:47.364Z,3.50
2019-06-10T02:46:43.622Z,4.00
2019-06-10T02:51:35.794Z,4.00
2019-06-10T02:56:34.876Z,4.05
2019-06-10T03:01:28.407Z,4.08
2019-06-10T03:06:17.983Z,3.72
2019-06-10T03:11:10.303Z,4.03
2019-06-10T03:16:04.338Z,4.47
2019-06-10T03:20:56.878Z,4.37
2019-06-10T03:25:52.709Z,4.50
2019-06-10T03:30:52.861Z,4.20
2019-06-10T03:35:39.467Z,3.90
2019-06-10T03:40:32.815Z,4.97
2019-06-10T03:45:28.063Z,6.33
2019-06-10T03:50:23.916Z,5.78
2019-06-10T03:55:14.438Z,4.65
2019-06-10T04:00:11.433Z,4.65
2019-06-10T04:05:02.767Z,5.05
2019-06-10T04:09:55.613Z,4.92
2019-06-10T04:14:48.691Z,4.50
2019-06-10T04:19:42.096Z,4.70
2019-06-10T04:24:34.612Z,5.00
2019-06-10T04:29:28.644Z,6.95
2019-06-10T04:34:25.487Z,6.92
2019-06-10T04:39:15.474Z,6.20
2019-06-10T04:44:08.060Z,5.05
2019-06-10T04:49:02.742Z,5.03
2019-06-10T04:53:54.962Z,4.67
2019-06-10T04:58:47.847Z,4.80
2019-06-10T05:04:03.139Z,4.53
2019-06-10T05:08:54.755Z,4.22
2019-06-10T05:13:47.377Z,4.50
2019-06-10T05:18:42.335Z,3.80
2019-06-10T05:23:34.273Z,4.12
2019-06-10T05:28:27.481Z,3.90
2019-06-10T05:33:22.820Z,3.62
2019-06-10T05:38:14.586Z,4.10
2019-06-10T05:43:07.551Z,3.30
2019-06-10T05:48:02.205Z,3.70
2019-06-10T05:52:54.355Z,4.00
2019-06-10T05:57:47.248Z,3.77
2019-06-10T06:02:39.682Z,3.80
2019-06-10T06:07:35.243Z,3.70
2019-06-10T06:12:27.352Z,12.00
2019-06-10T06:17:20.050Z,3.35
2019-06-10T06:22:13.062Z,4.03
2019-06-10T06:27:05.706Z,3.40
2019-06-10T06:31:58.100Z,3.65
2019-06-10T06:36:52.826Z,3.37
2019-06-10T06:41:45.071Z,3.50
2019-06-10T06:46:39.604Z,3.62
2019-06-10T06:51:46.784Z,3.30
2019-06-10T06:56:28.899Z,3.15
2019-06-10T07:01:25.483Z,3.40
2019-06-10T07:06:15.807Z,3.45
2019-06-10T07:11:10.599Z,3.22
2019-06-10T07:16:03.222Z,3.58
2019-06-10T07:20:55.897Z,3.17
2019-06-10T07:25:48.231Z,3.60
2019-06-10T07:30:47.171Z,3.40
2019-06-10T07:35:36.076Z,3.20
2019-06-10T07:40:29.396Z,3.25
2019-06-10T07:45:22.244Z,3.25
2019-06-10T07:50:15.734Z,3.20
2019-06-10T07:55:08.589Z,3.62
2019-06-10T08:00:03.172Z,3.33
2019-06-10T08:04:55.589Z,3.30
2019-06-10T08:09:48.084Z,3.30
2019-06-10T08:14:42.742Z,3.37
2019-06-10T08:19:39.872Z,3.30
2019-06-10T08:24:28.711Z,3.20
2019-06-10T08:29:23.431Z,3.10
2019-06-10T08:34:15.913Z,3.02
2019-06-10T08:39:11.932Z,3.17
2019-06-10T08:44:02.439Z,3.27
2019-06-10T08:48:54.806Z,4.78
2019-06-10T08:53:49.939Z,3.42
2019-06-10T08:58:45.799Z,2.70
2019-06-10T09:03:35.647Z,3.10
2019-06-10T09:08:27.816Z,2.70
2019-06-10T09:13:22.395Z,3.12
2019-06-10T09:18:18.995Z,2.60
2019-06-10T09:23:21.637Z,2.90
2019-06-10T09:28:02.555Z,3.05
2019-06-10T09:32:56.823Z,2.90
2019-06-10T09:37:51.614Z,3.12
2019-06-10T09:42:46.287Z,2.87
2019-06-10T09:47:38.515Z,2.90
2019-06-10T09:52:32.905Z,3.10
2019-06-10T09:57:25.256Z,3.30
2019-06-10T10:02:18.015Z,3.12
2019-06-10T10:07:12.138Z,3.05
2019-06-10T10:12:05.340Z,3.10
2019-06-10T10:17:00.209Z,3.60
2019-06-10T10:21:56.094Z,2.98
2019-06-10T10:26:48.747Z,2.70
2019-06-10T10:31:43.044Z,3.02
2019-06-10T10:36:34.621Z,2.90
2019-06-10T10:41:27.167Z,2.65
2019-06-10T10:46:19.303Z,3.00
2019-06-10T10:51:13.430Z,3.00
2019-06-10T10:56:06.119Z,3.22
2019-06-10T11:00:58.570Z,3.00
2019-06-10T11:05:57.427Z,2.77
2019-06-10T11:10:47.833Z,4.00
2019-06-10T11:15:40.039Z,3.30
2019-06-10T11:20:33.645Z,3.20
2019-06-10T11:25:26.162Z,3.35
2019-06-10T11:30:18.431Z,3.35
2019-06-10T11:35:12.178Z,3.27
2019-06-10T11:40:07.134Z,3.00
2019-06-10T11:44:59.948Z,3.12
2019-06-10T11:49:55.040Z,3.22
2019-06-10T11:54:55.860Z,3.37
2019-06-10T11:59:43.404Z,3.00
2019-06-10T12:04:35.920Z,3.00
2019-06-10T12:09:28.411Z,2.95
2019-06-10T12:14:26.293Z,2.93
2019-06-10T12:19:15.425Z,3.22
2019-06-10T12:24:08.143Z,2.80
2019-06-10T12:29:05.297Z,3.02
2019-06-10T12:33:57.267Z,3.17
2019-06-10T12:38:48.901Z,2.55
2019-06-10T12:43:43.312Z,2.85
2019-06-10T12:48:35.860Z,2.80
2019-06-10T12:53:28.453Z,2.37
2019-06-10T12:58:22.554Z,2.65
2019-06-10T13:03:15.860Z,2.83
2019-06-10T13:08:08.891Z,2.80
2019-06-10T13:13:05.668Z,2.77
2019-06-10T13:17:56.181Z,2.98
2019-06-10T13:22:48.608Z,3.40
2019-06-10T13:27:42.833Z,3.37
2019-06-10T13:32:35.842Z,2.92
2019-06-10T13:37:28.599Z,3.00
2019-06-10T13:42:22.802Z,3.10
2019-06-10T13:47:15.230Z,3.15
2019-06-10T13:52:13.162Z,3.70
2019-06-10T13:57:05.060Z,3.85
2019-06-10T14:01:56.244Z,3.37
2019-06-10T14:06:50.535Z,3.30
2019-06-10T14:11:43.223Z,3.67
2019-06-10T14:16:35.951Z,3.42
2019-06-10T14:21:28.364Z,2.67
2019-06-10T14:26:34.480Z,3.00
2019-06-10T14:31:33.698Z,3.27
2019-06-10T14:36:10.493Z,3.20
2019-06-10T14:41:05.034Z,2.60
2019-06-10T14:45:58.026Z,3.08
2019-06-10T14:50:50.492Z,2.98
2019-06-10T14:55:43.528Z,3.10
2019-06-10T15:00:35.894Z,3.70
2019-06-10T15:05:28.354Z,3.50
2019-06-10T15:10:23.346Z,3.62
2019-06-10T15:15:16.248Z,3.50
2019-06-10T15:20:09.812Z,3.75
2019-06-10T15:25:03.296Z,3.90
2019-06-10T15:29:55.715Z,3.83
2019-06-10T15:34:48.215Z,3.92
2019-06-10T15:39:42.389Z,3.98
2019-06-10T15:44:48.465Z,4.00
2019-06-10T15:49:28.932Z,3.67
2019-06-10T15:54:25.194Z,3.60
2019-06-10T15:59:17.146Z,3.77
2019-06-10T16:04:14.083Z,3.45
2019-06-10T16:09:07.795Z,3.40
2019-06-10T16:14:02.708Z,3.40
2019-06-10T16:18:53.952Z,3.90
2019-06-10T16:23:46.508Z,4.22
2019-06-10T16:28:42.582Z,3.37
2019-06-10T16:33:34.443Z,3.40
2019-06-10T16:38:27.321Z,3.17
2019-06-10T16:43:19.676Z,3.52
2019-06-10T16:48:13.189Z,3.12
2019-06-10T16:53:05.709Z,3.10
2019-06-10T16:57:59.654Z,3.33
2019-06-10T17:02:52.973Z,3.00
2019-06-10T17:07:45.566Z,3.40
2019-06-10T17:12:37.938Z,2.87
2019-06-10T17:17:32.721Z,2.70
2019-06-10T17:22:27.389Z,2.70
2019-06-10T17:27:19.212Z,2.60
2019-06-10T17:32:13.278Z,2.20
2019-06-10T17:37:07.075Z,2.42
2019-06-10T17:41:59.367Z,2.58
2019-06-10T17:46:52.836Z,2.50
2019-06-10T17:51:45.338Z,2.40
2019-06-10T17:56:37.900Z,2.10
2019-06-10T18:01:31.766Z,2.10
2019-06-10T18:06:25.946Z,2.12
2019-06-10T18:11:18.663Z,2.67
2019-06-10T18:16:13.169Z,2.27
2019-06-10T18:21:05.990Z,2.22
2019-06-10T18:25:58.282Z,2.65
2019-06-10T18:30:53.161Z,2.20
2019-06-10T18:35:45.321Z,3.10
2019-06-10T18:40:38.302Z,3.30
2019-06-10T18:45:33.314Z,3.20
2019-06-10T18:50:26.075Z,3.15
2019-06-10T18:55:19.589Z,3.00
2019-06-10T19:00:14.845Z,3.22
2019-06-10T19:05:12.920Z,2.83
2019-06-10T19:10:07.243Z,3.08
2019-06-10T19:14:59.939Z,2.85
2019-06-10T19:19:53.417Z,2.70
2019-06-10T19:24:45.990Z,2.77
2019-06-10T19:29:45.896Z,2.90
2019-06-10T19:34:33.333Z,3.02
2019-06-10T19:39:25.564Z,3.65
2019-06-10T19:44:18.052Z,3.47
2019-06-10T19:49:13.150Z,3.22
2019-06-10T19:54:08.390Z,3.50
2019-06-10T19:59:01.024Z,3.05
2019-06-10T20:03:53.668Z,3.60
2019-06-10T20:08:46.312Z,3.22
2019-06-10T20:13:40.449Z,3.72
2019-06-10T20:18:33.390Z,3.53
2019-06-10T20:23:25.848Z,3.40
2019-06-10T20:28:18.459Z,3.10
2019-06-10T20:33:13.440Z,2.85
2019-06-10T20:38:05.452Z,3.00
2019-06-10T20:43:00.179Z,2.92
2019-06-10T20:47:53.407Z,2.98
2019-06-10T20:52:47.485Z,2.92
2019-06-10T20:57:52.081Z,2.92
2019-06-10T21:02:34.503Z,2.67
2019-06-10T21:07:27.807Z,3.25
2019-06-10T21:12:22.103Z,2.80
2019-06-10T21:17:14.055Z,2.90
2019-06-10T21:22:06.635Z,2.98
2019-06-10T21:26:59.214Z,2.98
2019-06-10T21:31:54.461Z,2.83
2019-06-10T21:36:47.375Z,2.75
2019-06-10T21:41:42.197Z,4.08
2019-06-10T21:46:34.088Z,3.20
2019-06-10T21:51:26.710Z,3.37
2019-06-10T21:56:19.413Z,3.27
2019-06-10T22:01:14.145Z,2.87
2019-06-10T22:06:06.048Z,3.42
2019-06-10T22:10:58.444Z,3.30
2019-06-10T22:15:53.453Z,3.30
2019-06-10T22:20:44.965Z,3.45
2019-06-10T22:25:37.211Z,3.13
2019-06-10T22:30:31.944Z,3.47
2019-06-10T22:35:23.621Z,3.15
2019-06-10T22:40:16.369Z,3.00
2019-06-10T22:45:09.166Z,3.08
2019-06-10T22:50:07.099Z,3.55
2019-06-10T22:54:58.333Z,3.67
2019-06-10T22:59:49.279Z,3.92
2019-06-10T23:04:43.414Z,4.20
2019-06-10T23:09:35.747Z,4.05
2019-06-10T23:14:27.972Z,4.40
2019-06-10T23:19:20.458Z,3.90
2019-06-10T23:24:13.620Z,3.90
2019-06-10T23:29:06.095Z,4.28
2019-06-10T23:33:58.800Z,4.33
2019-06-10T23:38:52.853Z,3.87
2019-06-10T23:43:45.845Z,3.83
2019-06-10T23:48:38.336Z,4.03
2019-06-10T23:53:32.701Z,3.20
2019-06-10T23:58:25.182Z,3.77
